sensor_id;sensor_type;location;lat;lon;timestamp;temperature;humidity
21522;DHT22;10922;45.572;10.002;2023-05-09T00:01:53;16.60;99.90
21522;DHT22;10922;45.572;10.002;2023-05-09T00:04:19;16.50;99.90
21522;DHT22;10922;45.572;10.002;2023-05-09T01:21:02;15.90;1.00
21522;DHT22;10922;45.572;10.002;2023-05-09T01:29:26;16.00;1.00
21522;DHT22;10922;45.572;10.002;2023-05-09T01:31:55;16.00;1.00
21522;DHT22;10922;45.572;10.002;2023-05-09T01:34:27;16.00;1.00
21522;DHT22;10922;45.572;10.002;2023-05-09T01:36:57;16.10;1.00
21522;DHT22;10922;45.572;10.002;2023-05-09T01:39:24;16.10;1.00
21522;DHT22;10922;45.572;10.002;2023-05-09T01:41:52;16.00;1.00
21522;DHT22;10922;45.572;10.002;2023-05-09T01:44:20;16.10;1.00
21522;DHT22;10922;45.572;10.002;2023-05-09T01:46:47;16.10;1.00
21522;DHT22;10922;45.572;10.002;2023-05-09T01:49:14;16.00;1.00
21522;DHT22;10922;45.572;10.002;2023-05-09T01:51:42;16.10;1.00
21522;DHT22;10922;45.572;10.002;2023-05-09T01:54:09;16.00;1.00
21522;DHT22;10922;45.572;10.002;2023-05-09T01:56:37;16.00;1.00
21522;DHT22;10922;45.572;10.002;2023-05-09T01:59:05;16.00;1.00
21522;DHT22;10922;45.572;10.002;2023-05-09T02:01:31;16.10;1.00
21522;DHT22;10922;45.572;10.002;2023-05-09T02:03:58;16.20;1.00
21522;DHT22;10922;45.572;10.002;2023-05-09T02:06:25;16.20;1.00
21522;DHT22;10922;45.572;10.002;2023-05-09T02:08:54;16.30;1.00
21522;DHT22;10922;45.572;10.002;2023-05-09T02:11:20;16.30;1.00
21522;DHT22;10922;45.572;10.002;2023-05-09T02:13:46;16.20;1.00
21522;DHT22;10922;45.572;10.002;2023-05-09T02:16:12;16.20;1.00
21522;DHT22;10922;45.572;10.002;2023-05-09T02:18:38;16.20;1.00
21522;DHT22;10922;45.572;10.002;2023-05-09T02:21:04;16.20;1.00
21522;DHT22;10922;45.572;10.002;2023-05-09T02:23:30;16.30;1.00
21522;DHT22;10922;45.572;10.002;2023-05-09T02:25:56;16.30;1.00
21522;DHT22;10922;45.572;10.002;2023-05-09T02:28:22;16.40;1.00
21522;DHT22;10922;45.572;10.002;2023-05-09T02:30:49;16.40;1.00
21522;DHT22;10922;45.572;10.002;2023-05-09T02:33:16;16.30;1.00
21522;DHT22;10922;45.572;10.002;2023-05-09T02:35:44;16.30;1.00
21522;DHT22;10922;45.572;10.002;2023-05-09T02:38:11;16.30;1.00
21522;DHT22;10922;45.572;10.002;2023-05-09T02:40:38;16.40;1.00
21522;DHT22;10922;45.572;10.002;2023-05-09T02:43:04;16.40;1.00
21522;DHT22;10922;45.572;10.002;2023-05-09T02:45:30;16.40;1.00
21522;DHT22;10922;45.572;10.002;2023-05-09T02:47:56;16.40;1.00
21522;DHT22;10922;45.572;10.002;2023-05-09T02:50:22;16.50;1.00
21522;DHT22;10922;45.572;10.002;2023-05-09T02:52:48;16.50;1.00
21522;DHT22;10922;45.572;10.002;2023-05-09T02:55:14;16.60;1.00
21522;DHT22;10922;45.572;10.002;2023-05-09T02:57:39;16.60;1.00
21522;DHT22;10922;45.572;10.002;2023-05-09T03:00:05;16.60;1.00
21522;DHT22;10922;45.572;10.002;2023-05-09T03:02:35;16.60;1.00
21522;DHT22;10922;45.572;10.002;2023-05-09T03:05:01;16.70;1.00
21522;DHT22;10922;45.572;10.002;2023-05-09T03:07:27;16.70;1.00
21522;DHT22;10922;45.572;10.002;2023-05-09T03:09:53;16.60;1.00
21522;DHT22;10922;45.572;10.002;2023-05-09T03:12:19;16.70;1.00
21522;DHT22;10922;45.572;10.002;2023-05-09T03:14:46;16.70;1.00
21522;DHT22;10922;45.572;10.002;2023-05-09T03:17:12;16.70;1.00
21522;DHT22;10922;45.572;10.002;2023-05-09T03:19:41;16.70;1.00
21522;DHT22;10922;45.572;10.002;2023-05-09T03:22:07;16.70;1.00
21522;DHT22;10922;45.572;10.002;2023-05-09T03:24:33;16.70;99.90
21522;DHT22;10922;45.572;10.002;2023-05-09T03:26:59;16.70;99.90
21522;DHT22;10922;45.572;10.002;2023-05-09T03:29:24;16.60;99.90
21522;DHT22;10922;45.572;10.002;2023-05-09T03:31:50;16.60;99.90
21522;DHT22;10922;45.572;10.002;2023-05-09T03:34:16;16.60;99.90
21522;DHT22;10922;45.572;10.002;2023-05-09T03:36:42;16.60;99.90
21522;DHT22;10922;45.572;10.002;2023-05-09T03:39:08;16.60;1.00
21522;DHT22;10922;45.572;10.002;2023-05-09T03:41:35;16.60;1.00
21522;DHT22;10922;45.572;10.002;2023-05-09T03:44:01;16.60;1.00
21522;DHT22;10922;45.572;10.002;2023-05-09T03:46:27;16.60;1.00
21522;DHT22;10922;45.572;10.002;2023-05-09T03:48:52;16.50;1.00
21522;DHT22;10922;45.572;10.002;2023-05-09T03:51:18;16.50;1.00
21522;DHT22;10922;45.572;10.002;2023-05-09T03:53:45;16.50;1.00
21522;DHT22;10922;45.572;10.002;2023-05-09T03:56:12;16.50;1.00
21522;DHT22;10922;45.572;10.002;2023-05-09T03:58:38;16.40;1.00
21522;DHT22;10922;45.572;10.002;2023-05-09T04:01:03;16.40;1.00
21522;DHT22;10922;45.572;10.002;2023-05-09T04:03:29;16.40;1.00
21522;DHT22;10922;45.572;10.002;2023-05-09T04:05:55;16.40;1.00
21522;DHT22;10922;45.572;10.002;2023-05-09T04:08:21;16.40;1.00
21522;DHT22;10922;45.572;10.002;2023-05-09T04:10:48;16.40;1.00
21522;DHT22;10922;45.572;10.002;2023-05-09T04:13:14;16.40;1.00
21522;DHT22;10922;45.572;10.002;2023-05-09T04:15:39;16.40;1.00
21522;DHT22;10922;45.572;10.002;2023-05-09T04:18:05;16.40;1.00
21522;DHT22;10922;45.572;10.002;2023-05-09T04:20:31;16.40;1.00
21522;DHT22;10922;45.572;10.002;2023-05-09T04:22:56;16.40;1.00
21522;DHT22;10922;45.572;10.002;2023-05-09T04:25:23;16.50;1.00
21522;DHT22;10922;45.572;10.002;2023-05-09T04:27:49;16.40;1.00
21522;DHT22;10922;45.572;10.002;2023-05-09T04:30:15;16.50;1.00
21522;DHT22;10922;45.572;10.002;2023-05-09T04:32:40;16.50;1.00
21522;DHT22;10922;45.572;10.002;2023-05-09T04:35:10;16.50;1.00
21522;DHT22;10922;45.572;10.002;2023-05-09T04:37:36;16.50;1.00
21522;DHT22;10922;45.572;10.002;2023-05-09T04:40:02;16.50;1.00
21522;DHT22;10922;45.572;10.002;2023-05-09T04:42:29;16.50;1.00
21522;DHT22;10922;45.572;10.002;2023-05-09T04:44:58;16.40;1.00
21522;DHT22;10922;45.572;10.002;2023-05-09T04:47:24;16.40;1.00
21522;DHT22;10922;45.572;10.002;2023-05-09T04:49:50;16.50;1.00
21522;DHT22;10922;45.572;10.002;2023-05-09T04:52:16;16.50;1.00
21522;DHT22;10922;45.572;10.002;2023-05-09T04:54:41;16.50;1.00
21522;DHT22;10922;45.572;10.002;2023-05-09T04:57:07;16.50;1.00
21522;DHT22;10922;45.572;10.002;2023-05-09T04:59:33;16.60;99.90
21522;DHT22;10922;45.572;10.002;2023-05-09T05:02:00;16.50;99.90
21522;DHT22;10922;45.572;10.002;2023-05-09T05:04:25;16.60;1.00
21522;DHT22;10922;45.572;10.002;2023-05-09T05:06:51;16.60;99.90
21522;DHT22;10922;45.572;10.002;2023-05-09T05:09:16;16.60;99.90
21522;DHT22;10922;45.572;10.002;2023-05-09T05:11:42;16.60;99.90
21522;DHT22;10922;45.572;10.002;2023-05-09T05:14:08;16.70;99.90
21522;DHT22;10922;45.572;10.002;2023-05-09T05:16:33;16.80;99.90
21522;DHT22;10922;45.572;10.002;2023-05-09T05:18:59;16.80;99.90
21522;DHT22;10922;45.572;10.002;2023-05-09T05:21:25;16.80;99.90
21522;DHT22;10922;45.572;10.002;2023-05-09T05:23:52;16.70;99.90
21522;DHT22;10922;45.572;10.002;2023-05-09T05:26:17;16.60;99.90
21522;DHT22;10922;45.572;10.002;2023-05-09T05:28:43;16.50;99.90
21522;DHT22;10922;45.572;10.002;2023-05-09T05:31:09;16.40;99.90
21522;DHT22;10922;45.572;10.002;2023-05-09T05:33:34;16.50;99.90
21522;DHT22;10922;45.572;10.002;2023-05-09T05:36:00;16.50;99.90
21522;DHT22;10922;45.572;10.002;2023-05-09T05:38:26;16.50;99.90
21522;DHT22;10922;45.572;10.002;2023-05-09T05:40:51;16.70;99.90
21522;DHT22;10922;45.572;10.002;2023-05-09T05:43:17;16.80;99.90
21522;DHT22;10922;45.572;10.002;2023-05-09T05:45:43;16.90;99.90
21522;DHT22;10922;45.572;10.002;2023-05-09T05:48:08;17.00;99.90
21522;DHT22;10922;45.572;10.002;2023-05-09T05:50:34;17.00;99.90
21522;DHT22;10922;45.572;10.002;2023-05-09T05:53:01;16.90;99.90
21522;DHT22;10922;45.572;10.002;2023-05-09T05:55:26;17.00;99.90
21522;DHT22;10922;45.572;10.002;2023-05-09T05:57:52;17.00;99.90
21522;DHT22;10922;45.572;10.002;2023-05-09T06:00:18;17.10;99.90
21522;DHT22;10922;45.572;10.002;2023-05-09T06:02:45;16.90;99.90
21522;DHT22;10922;45.572;10.002;2023-05-09T06:05:12;16.90;99.90
21522;DHT22;10922;45.572;10.002;2023-05-09T06:07:38;16.90;99.90
21522;DHT22;10922;45.572;10.002;2023-05-09T06:10:06;17.00;99.90
21522;DHT22;10922;45.572;10.002;2023-05-09T06:12:32;17.00;99.90
21522;DHT22;10922;45.572;10.002;2023-05-09T06:14:58;17.00;99.90
21522;DHT22;10922;45.572;10.002;2023-05-09T06:17:23;16.90;99.90
21522;DHT22;10922;45.572;10.002;2023-05-09T06:19:49;16.90;99.90
21522;DHT22;10922;45.572;10.002;2023-05-09T06:22:15;17.00;99.90
21522;DHT22;10922;45.572;10.002;2023-05-09T06:24:40;17.20;99.90
21522;DHT22;10922;45.572;10.002;2023-05-09T06:27:07;17.40;99.90
21522;DHT22;10922;45.572;10.002;2023-05-09T06:29:33;17.60;99.90
21522;DHT22;10922;45.572;10.002;2023-05-09T06:31:59;17.50;99.90
21522;DHT22;10922;45.572;10.002;2023-05-09T06:34:25;17.50;99.90
21522;DHT22;10922;45.572;10.002;2023-05-09T06:36:50;17.50;99.90
21522;DHT22;10922;45.572;10.002;2023-05-09T06:39:16;17.60;99.90
21522;DHT22;10922;45.572;10.002;2023-05-09T06:41:41;17.90;99.90
21522;DHT22;10922;45.572;10.002;2023-05-09T06:44:07;18.10;99.90
21522;DHT22;10922;45.572;10.002;2023-05-09T06:46:33;18.40;99.90
21522;DHT22;10922;45.572;10.002;2023-05-09T06:48:59;18.70;99.90
21522;DHT22;10922;45.572;10.002;2023-05-09T06:51:26;18.90;99.90
21522;DHT22;10922;45.572;10.002;2023-05-09T06:53:51;19.10;99.90
21522;DHT22;10922;45.572;10.002;2023-05-09T06:56:17;19.20;99.90
21522;DHT22;10922;45.572;10.002;2023-05-09T06:58:44;19.40;99.90
21522;DHT22;10922;45.572;10.002;2023-05-09T07:01:10;19.70;99.90
21522;DHT22;10922;45.572;10.002;2023-05-09T07:03:35;19.90;99.90
21522;DHT22;10922;45.572;10.002;2023-05-09T07:06:01;20.00;99.90
21522;DHT22;10922;45.572;10.002;2023-05-09T07:08:28;20.20;99.90
21522;DHT22;10922;45.572;10.002;2023-05-09T07:10:53;20.30;99.90
21522;DHT22;10922;45.572;10.002;2023-05-09T07:13:19;20.50;99.90
21522;DHT22;10922;45.572;10.002;2023-05-09T07:15:45;20.40;99.90
21522;DHT22;10922;45.572;10.002;2023-05-09T07:18:11;20.60;99.90
21522;DHT22;10922;45.572;10.002;2023-05-09T07:20:36;20.60;99.90
21522;DHT22;10922;45.572;10.002;2023-05-09T07:23:03;20.90;99.90
21522;DHT22;10922;45.572;10.002;2023-05-09T07:25:29;20.90;99.90
21522;DHT22;10922;45.572;10.002;2023-05-09T07:27:54;20.80;99.90
21522;DHT22;10922;45.572;10.002;2023-05-09T07:30:20;21.10;99.90
21522;DHT22;10922;45.572;10.002;2023-05-09T07:32:46;21.20;99.90
21522;DHT22;10922;45.572;10.002;2023-05-09T07:35:12;21.00;99.90
21522;DHT22;10922;45.572;10.002;2023-05-09T07:37:37;21.10;99.90
21522;DHT22;10922;45.572;10.002;2023-05-09T07:40:03;21.30;99.90
21522;DHT22;10922;45.572;10.002;2023-05-09T07:42:30;21.20;99.90
21522;DHT22;10922;45.572;10.002;2023-05-09T07:44:57;21.20;99.90
21522;DHT22;10922;45.572;10.002;2023-05-09T07:47:23;21.30;99.90
21522;DHT22;10922;45.572;10.002;2023-05-09T07:49:49;21.10;99.90
21522;DHT22;10922;45.572;10.002;2023-05-09T07:52:15;20.90;99.90
21522;DHT22;10922;45.572;10.002;2023-05-09T07:54:42;21.00;99.90
21522;DHT22;10922;45.572;10.002;2023-05-09T07:57:08;21.30;99.90
21522;DHT22;10922;45.572;10.002;2023-05-09T07:59:34;21.40;99.90
21522;DHT22;10922;45.572;10.002;2023-05-09T08:02:00;21.10;99.90
21522;DHT22;10922;45.572;10.002;2023-05-09T08:04:25;21.00;99.90
21522;DHT22;10922;45.572;10.002;2023-05-09T08:06:51;21.10;99.90
21522;DHT22;10922;45.572;10.002;2023-05-09T08:09:17;21.10;99.90
21522;DHT22;10922;45.572;10.002;2023-05-09T08:11:43;21.40;99.90
21522;DHT22;10922;45.572;10.002;2023-05-09T08:14:09;21.40;99.90
21522;DHT22;10922;45.572;10.002;2023-05-09T08:16:35;20.90;99.90
21522;DHT22;10922;45.572;10.002;2023-05-09T08:19:01;21.00;99.90
21522;DHT22;10922;45.572;10.002;2023-05-09T08:21:27;21.10;99.90
21522;DHT22;10922;45.572;10.002;2023-05-09T08:23:52;21.20;99.90
21522;DHT22;10922;45.572;10.002;2023-05-09T08:26:18;21.10;99.90
21522;DHT22;10922;45.572;10.002;2023-05-09T08:28:44;21.00;99.90
21522;DHT22;10922;45.572;10.002;2023-05-09T08:31:10;21.10;99.90
21522;DHT22;10922;45.572;10.002;2023-05-09T08:33:35;21.30;99.90
21522;DHT22;10922;45.572;10.002;2023-05-09T08:36:01;21.40;99.90
21522;DHT22;10922;45.572;10.002;2023-05-09T08:38:27;21.50;99.90
21522;DHT22;10922;45.572;10.002;2023-05-09T08:40:59;21.40;99.90
21522;DHT22;10922;45.572;10.002;2023-05-09T08:43:27;21.60;99.90
21522;DHT22;10922;45.572;10.002;2023-05-09T08:45:58;21.80;99.90
21522;DHT22;10922;45.572;10.002;2023-05-09T08:48:25;21.90;99.90
21522;DHT22;10922;45.572;10.002;2023-05-09T08:50:53;22.30;99.90
21522;DHT22;10922;45.572;10.002;2023-05-09T08:53:19;22.30;99.90
21522;DHT22;10922;45.572;10.002;2023-05-09T08:55:46;22.30;99.90
21522;DHT22;10922;45.572;10.002;2023-05-09T08:58:12;22.70;99.90
21522;DHT22;10922;45.572;10.002;2023-05-09T09:00:40;22.90;99.90
21522;DHT22;10922;45.572;10.002;2023-05-09T09:03:06;23.00;99.90
21522;DHT22;10922;45.572;10.002;2023-05-09T09:05:35;23.60;99.90
21522;DHT22;10922;45.572;10.002;2023-05-09T09:08:02;23.90;99.90
21522;DHT22;10922;45.572;10.002;2023-05-09T09:10:31;24.20;99.90
21522;DHT22;10922;45.572;10.002;2023-05-09T09:12:58;24.50;99.90
21522;DHT22;10922;45.572;10.002;2023-05-09T09:15:29;24.70;99.90
21522;DHT22;10922;45.572;10.002;2023-05-09T09:17:59;24.50;99.90
21522;DHT22;10922;45.572;10.002;2023-05-09T09:20:29;24.60;99.90
21522;DHT22;10922;45.572;10.002;2023-05-09T09:22:58;24.70;99.90
21522;DHT22;10922;45.572;10.002;2023-05-09T09:25:28;25.10;99.90
21522;DHT22;10922;45.572;10.002;2023-05-09T09:27:53;25.20;99.90
21522;DHT22;10922;45.572;10.002;2023-05-09T09:30:22;25.60;99.90
21522;DHT22;10922;45.572;10.002;2023-05-09T09:32:49;25.40;99.90
21522;DHT22;10922;45.572;10.002;2023-05-09T09:35:16;25.30;99.90
21522;DHT22;10922;45.572;10.002;2023-05-09T09:37:41;25.60;99.90
21522;DHT22;10922;45.572;10.002;2023-05-09T09:40:09;25.80;99.90
21522;DHT22;10922;45.572;10.002;2023-05-09T09:42:46;25.80;99.90
21522;DHT22;10922;45.572;10.002;2023-05-09T09:45:15;26.10;99.90
21522;DHT22;10922;45.572;10.002;2023-05-09T09:47:46;25.80;99.90
21522;DHT22;10922;45.572;10.002;2023-05-09T09:50:16;25.40;99.90
21522;DHT22;10922;45.572;10.002;2023-05-09T09:52:48;25.90;99.90
21522;DHT22;10922;45.572;10.002;2023-05-09T09:55:15;25.80;99.90
21522;DHT22;10922;45.572;10.002;2023-05-09T09:57:40;25.90;99.90
21522;DHT22;10922;45.572;10.002;2023-05-09T10:00:10;25.70;99.90
21522;DHT22;10922;45.572;10.002;2023-05-09T10:03:06;25.90;99.90
21522;DHT22;10922;45.572;10.002;2023-05-09T10:05:38;26.10;99.90
21522;DHT22;10922;45.572;10.002;2023-05-09T10:08:05;26.00;99.90
21522;DHT22;10922;45.572;10.002;2023-05-09T10:10:36;26.10;99.90
21522;DHT22;10922;45.572;10.002;2023-05-09T10:13:07;26.20;99.90
21522;DHT22;10922;45.572;10.002;2023-05-09T10:15:35;26.50;99.90
21522;DHT22;10922;45.572;10.002;2023-05-09T10:18:04;26.60;99.90
21522;DHT22;10922;45.572;10.002;2023-05-09T10:20:33;26.50;99.90
21522;DHT22;10922;45.572;10.002;2023-05-09T10:23:03;26.20;99.90
21522;DHT22;10922;45.572;10.002;2023-05-09T10:25:46;26.10;99.90
21522;DHT22;10922;45.572;10.002;2023-05-09T10:28:16;26.10;99.90
21522;DHT22;10922;45.572;10.002;2023-05-09T10:31:48;25.70;99.90
21522;DHT22;10922;45.572;10.002;2023-05-09T10:33:47;26.00;99.90
21522;DHT22;10922;45.572;10.002;2023-05-09T10:36:19;26.10;99.90
21522;DHT22;10922;45.572;10.002;2023-05-09T10:38:53;26.50;99.90
21522;DHT22;10922;45.572;10.002;2023-05-09T10:41:19;26.50;99.90
21522;DHT22;10922;45.572;10.002;2023-05-09T10:43:46;27.10;99.90
21522;DHT22;10922;45.572;10.002;2023-05-09T10:46:13;26.80;99.90
21522;DHT22;10922;45.572;10.002;2023-05-09T10:48:39;27.00;99.90
21522;DHT22;10922;45.572;10.002;2023-05-09T10:51:06;26.20;99.90
21522;DHT22;10922;45.572;10.002;2023-05-09T10:53:47;26.50;99.90
21522;DHT22;10922;45.572;10.002;2023-05-09T10:56:30;26.50;99.90
21522;DHT22;10922;45.572;10.002;2023-05-09T10:58:57;26.70;99.90
21522;DHT22;10922;45.572;10.002;2023-05-09T11:01:36;26.90;99.90
21522;DHT22;10922;45.572;10.002;2023-05-09T11:04:15;26.80;99.90
21522;DHT22;10922;45.572;10.002;2023-05-09T11:11:54;27.20;99.90
21522;DHT22;10922;45.572;10.002;2023-05-09T11:14:45;27.00;99.90
21522;DHT22;10922;45.572;10.002;2023-05-09T11:24:47;27.20;99.90
21522;DHT22;10922;45.572;10.002;2023-05-09T11:32:16;27.30;99.90
21522;DHT22;10922;45.572;10.002;2023-05-09T11:34:43;27.20;99.90
21522;DHT22;10922;45.572;10.002;2023-05-09T11:37:15;27.00;99.90
21522;DHT22;10922;45.572;10.002;2023-05-09T11:40:00;27.70;99.90
21522;DHT22;10922;45.572;10.002;2023-05-09T11:42:30;28.30;99.90
21522;DHT22;10922;45.572;10.002;2023-05-09T11:44:56;28.30;99.90
21522;DHT22;10922;45.572;10.002;2023-05-09T11:47:23;28.30;99.90
21522;DHT22;10922;45.572;10.002;2023-05-09T11:49:49;28.10;99.90
21522;DHT22;10922;45.572;10.002;2023-05-09T11:52:19;28.20;99.90
21522;DHT22;10922;45.572;10.002;2023-05-09T11:54:46;28.30;99.90
21522;DHT22;10922;45.572;10.002;2023-05-09T11:57:12;28.30;99.90
21522;DHT22;10922;45.572;10.002;2023-05-09T11:59:42;28.50;99.90
21522;DHT22;10922;45.572;10.002;2023-05-09T12:02:09;28.90;99.90
21522;DHT22;10922;45.572;10.002;2023-05-09T12:04:35;29.50;99.90
21522;DHT22;10922;45.572;10.002;2023-05-09T12:07:01;29.40;99.90
21522;DHT22;10922;45.572;10.002;2023-05-09T12:09:31;29.80;99.90
21522;DHT22;10922;45.572;10.002;2023-05-09T12:11:57;29.30;99.90
21522;DHT22;10922;45.572;10.002;2023-05-09T12:14:32;29.50;99.90
21522;DHT22;10922;45.572;10.002;2023-05-09T12:16:58;29.20;99.90
21522;DHT22;10922;45.572;10.002;2023-05-09T12:19:25;29.00;99.90
21522;DHT22;10922;45.572;10.002;2023-05-09T12:21:54;29.90;99.90
21522;DHT22;10922;45.572;10.002;2023-05-09T12:24:21;29.70;99.90
21522;DHT22;10922;45.572;10.002;2023-05-09T12:26:48;28.90;99.90
21522;DHT22;10922;45.572;10.002;2023-05-09T12:29:14;29.40;99.90
21522;DHT22;10922;45.572;10.002;2023-05-09T12:31:40;29.90;99.90
21522;DHT22;10922;45.572;10.002;2023-05-09T12:34:07;30.50;99.90
21522;DHT22;10922;45.572;10.002;2023-05-09T12:36:35;30.90;99.90
21522;DHT22;10922;45.572;10.002;2023-05-09T12:39:01;31.00;99.90
21522;DHT22;10922;45.572;10.002;2023-05-09T12:41:27;30.40;99.90
21522;DHT22;10922;45.572;10.002;2023-05-09T12:43:54;30.70;99.90
21522;DHT22;10922;45.572;10.002;2023-05-09T12:46:20;33.10;99.90
21522;DHT22;10922;45.572;10.002;2023-05-09T12:48:46;32.50;99.90
21522;DHT22;10922;45.572;10.002;2023-05-09T12:51:17;34.80;99.90
21522;DHT22;10922;45.572;10.002;2023-05-09T12:53:44;36.80;99.90
21522;DHT22;10922;45.572;10.002;2023-05-09T12:56:18;36.80;99.90
21522;DHT22;10922;45.572;10.002;2023-05-09T12:58:51;33.40;99.90
21522;DHT22;10922;45.572;10.002;2023-05-09T13:01:18;31.80;99.90
21522;DHT22;10922;45.572;10.002;2023-05-09T13:03:50;30.40;99.90
21522;DHT22;10922;45.572;10.002;2023-05-09T13:06:16;30.00;99.90
21522;DHT22;10922;45.572;10.002;2023-05-09T13:08:42;29.90;99.90
21522;DHT22;10922;45.572;10.002;2023-05-09T13:11:10;29.50;99.90
21522;DHT22;10922;45.572;10.002;2023-05-09T13:13:37;31.40;99.90
21522;DHT22;10922;45.572;10.002;2023-05-09T13:16:04;30.20;99.90
21522;DHT22;10922;45.572;10.002;2023-05-09T13:18:30;29.60;99.90
21522;DHT22;10922;45.572;10.002;2023-05-09T13:20:56;29.30;99.90
21522;DHT22;10922;45.572;10.002;2023-05-09T13:23:21;29.30;99.90
21522;DHT22;10922;45.572;10.002;2023-05-09T13:25:47;29.60;99.90
21522;DHT22;10922;45.572;10.002;2023-05-09T13:28:13;30.10;99.90
21522;DHT22;10922;45.572;10.002;2023-05-09T13:30:39;30.90;99.90
21522;DHT22;10922;45.572;10.002;2023-05-09T13:33:05;31.80;99.90
21522;DHT22;10922;45.572;10.002;2023-05-09T13:35:30;33.90;99.90
21522;DHT22;10922;45.572;10.002;2023-05-09T13:37:56;34.70;99.90
21522;DHT22;10922;45.572;10.002;2023-05-09T13:40:23;33.80;99.90
21522;DHT22;10922;45.572;10.002;2023-05-09T13:42:48;36.20;99.90
21522;DHT22;10922;45.572;10.002;2023-05-09T13:45:14;34.20;99.90
21522;DHT22;10922;45.572;10.002;2023-05-09T13:47:40;35.40;99.90
21522;DHT22;10922;45.572;10.002;2023-05-09T13:50:06;34.80;99.90
21522;DHT22;10922;45.572;10.002;2023-05-09T13:52:32;36.00;99.90
21522;DHT22;10922;45.572;10.002;2023-05-09T13:54:58;35.90;99.90
21522;DHT22;10922;45.572;10.002;2023-05-09T13:57:24;37.30;99.90
21522;DHT22;10922;45.572;10.002;2023-05-09T13:59:50;35.60;99.90
21522;DHT22;10922;45.572;10.002;2023-05-09T14:02:17;36.30;99.90
21522;DHT22;10922;45.572;10.002;2023-05-09T14:04:43;37.00;99.90
21522;DHT22;10922;45.572;10.002;2023-05-09T14:07:08;36.60;99.90
21522;DHT22;10922;45.572;10.002;2023-05-09T14:09:36;36.60;99.90
21522;DHT22;10922;45.572;10.002;2023-05-09T14:12:05;33.50;99.90
21522;DHT22;10922;45.572;10.002;2023-05-09T14:14:30;31.40;99.90
21522;DHT22;10922;45.572;10.002;2023-05-09T14:16:56;30.90;99.90
21522;DHT22;10922;45.572;10.002;2023-05-09T14:19:23;34.80;99.90
21522;DHT22;10922;45.572;10.002;2023-05-09T14:21:51;36.00;99.90
21522;DHT22;10922;45.572;10.002;2023-05-09T14:24:17;37.00;99.90
21522;DHT22;10922;45.572;10.002;2023-05-09T14:26:44;39.20;99.90
21522;DHT22;10922;45.572;10.002;2023-05-09T14:29:11;39.30;99.90
21522;DHT22;10922;45.572;10.002;2023-05-09T14:31:36;37.40;99.90
21522;DHT22;10922;45.572;10.002;2023-05-09T14:34:02;38.50;99.90
21522;DHT22;10922;45.572;10.002;2023-05-09T14:36:29;36.60;99.90
21522;DHT22;10922;45.572;10.002;2023-05-09T14:38:57;34.60;99.90
21522;DHT22;10922;45.572;10.002;2023-05-09T14:41:23;31.70;99.90
21522;DHT22;10922;45.572;10.002;2023-05-09T14:43:48;30.80;99.90
21522;DHT22;10922;45.572;10.002;2023-05-09T14:46:14;30.90;99.90
21522;DHT22;10922;45.572;10.002;2023-05-09T14:48:40;33.00;99.90
21522;DHT22;10922;45.572;10.002;2023-05-09T14:51:06;33.00;99.90
21522;DHT22;10922;45.572;10.002;2023-05-09T14:53:31;33.60;99.90
21522;DHT22;10922;45.572;10.002;2023-05-09T14:55:59;33.60;99.90
21522;DHT22;10922;45.572;10.002;2023-05-09T14:58:26;32.10;99.90
21522;DHT22;10922;45.572;10.002;2023-05-09T15:00:51;30.40;99.90
21522;DHT22;10922;45.572;10.002;2023-05-09T15:03:17;29.40;99.90
21522;DHT22;10922;45.572;10.002;2023-05-09T15:05:43;28.40;99.90
21522;DHT22;10922;45.572;10.002;2023-05-09T15:08:09;27.20;99.90
21522;DHT22;10922;45.572;10.002;2023-05-09T15:10:34;26.30;99.90
21522;DHT22;10922;45.572;10.002;2023-05-09T15:13:00;25.90;99.90
21522;DHT22;10922;45.572;10.002;2023-05-09T15:15:28;25.70;99.90
21522;DHT22;10922;45.572;10.002;2023-05-09T15:17:54;26.00;99.90
21522;DHT22;10922;45.572;10.002;2023-05-09T15:20:19;26.20;99.90
21522;DHT22;10922;45.572;10.002;2023-05-09T15:22:48;26.40;99.90
21522;DHT22;10922;45.572;10.002;2023-05-09T15:25:14;26.10;99.90
21522;DHT22;10922;45.572;10.002;2023-05-09T15:27:40;25.80;99.90
21522;DHT22;10922;45.572;10.002;2023-05-09T15:30:07;26.20;99.90
21522;DHT22;10922;45.572;10.002;2023-05-09T15:32:36;26.30;99.90
21522;DHT22;10922;45.572;10.002;2023-05-09T15:35:03;26.20;99.90
21522;DHT22;10922;45.572;10.002;2023-05-09T15:37:30;26.10;99.90
21522;DHT22;10922;45.572;10.002;2023-05-09T15:39:55;26.30;99.90
21522;DHT22;10922;45.572;10.002;2023-05-09T15:42:21;26.20;99.90
21522;DHT22;10922;45.572;10.002;2023-05-09T15:44:47;25.80;99.90
21522;DHT22;10922;45.572;10.002;2023-05-09T15:47:12;25.70;99.90
21522;DHT22;10922;45.572;10.002;2023-05-09T15:49:38;25.40;99.90
21522;DHT22;10922;45.572;10.002;2023-05-09T15:52:06;24.90;99.90
21522;DHT22;10922;45.572;10.002;2023-05-09T15:54:33;24.50;99.90
21522;DHT22;10922;45.572;10.002;2023-05-09T15:56:58;24.40;99.90
21522;DHT22;10922;45.572;10.002;2023-05-09T15:59:25;24.20;99.90
21522;DHT22;10922;45.572;10.002;2023-05-09T16:01:51;24.10;99.90
21522;DHT22;10922;45.572;10.002;2023-05-09T16:04:17;23.90;99.90
21522;DHT22;10922;45.572;10.002;2023-05-09T16:06:42;23.90;99.90
21522;DHT22;10922;45.572;10.002;2023-05-09T16:09:09;23.80;99.90
21522;DHT22;10922;45.572;10.002;2023-05-09T16:11:36;23.80;99.90
21522;DHT22;10922;45.572;10.002;2023-05-09T16:14:01;23.70;99.90
21522;DHT22;10922;45.572;10.002;2023-05-09T16:16:29;23.60;99.90
21522;DHT22;10922;45.572;10.002;2023-05-09T16:18:55;23.60;99.90
21522;DHT22;10922;45.572;10.002;2023-05-09T16:21:22;23.50;99.90
21522;DHT22;10922;45.572;10.002;2023-05-09T16:23:50;23.20;99.90
21522;DHT22;10922;45.572;10.002;2023-05-09T16:26:16;23.10;99.90
21522;DHT22;10922;45.572;10.002;2023-05-09T16:28:41;23.10;99.90
21522;DHT22;10922;45.572;10.002;2023-05-09T16:31:07;22.90;99.90
21522;DHT22;10922;45.572;10.002;2023-05-09T16:33:33;22.60;99.90
21522;DHT22;10922;45.572;10.002;2023-05-09T16:35:59;22.60;99.90
21522;DHT22;10922;45.572;10.002;2023-05-09T16:38:25;22.40;99.90
21522;DHT22;10922;45.572;10.002;2023-05-09T16:40:52;22.30;99.90
21522;DHT22;10922;45.572;10.002;2023-05-09T16:43:17;22.20;99.90
21522;DHT22;10922;45.572;10.002;2023-05-09T16:45:45;22.00;99.90
21522;DHT22;10922;45.572;10.002;2023-05-09T16:48:16;21.80;99.90
21522;DHT22;10922;45.572;10.002;2023-05-09T16:50:42;21.80;99.90
21522;DHT22;10922;45.572;10.002;2023-05-09T16:53:12;21.60;99.90
21522;DHT22;10922;45.572;10.002;2023-05-09T16:55:38;21.50;99.90
21522;DHT22;10922;45.572;10.002;2023-05-09T16:58:05;21.40;99.90